createdAt,value
2018-07-03T00:01:46.239Z,62.10
2018-07-03T00:04:14.437Z,62.40
2018-07-03T00:06:42.683Z,64.30
2018-07-03T00:09:11.036Z,62.80
2018-07-03T00:28:58.273Z,67.40
2018-07-03T00:31:26.540Z,67.10
2018-07-03T00:33:54.746Z,65.90
2018-07-03T00:36:22.995Z,65.40
2018-07-03T00:38:51.188Z,65.10
2018-07-03T00:41:19.393Z,65.10
2018-07-03T00:43:47.598Z,65.20
2018-07-03T00:46:15.769Z,65.20
2018-07-03T00:48:44.013Z,65.50
2018-07-03T00:51:12.180Z,67.60
2018-07-03T00:53:40.399Z,67.60
2018-07-03T00:56:08.583Z,66.90
2018-07-03T00:58:36.798Z,66.40
2018-07-03T01:01:04.994Z,66.60
2018-07-03T01:03:33.203Z,66.70
2018-07-03T01:06:01.454Z,68.40
2018-07-03T01:08:29.755Z,67.10
2018-07-03T01:10:57.936Z,66.50
2018-07-03T01:13:26.148Z,67.10
2018-07-03T01:15:54.327Z,69.50
2018-07-03T01:18:22.530Z,68.30
2018-07-03T01:20:50.733Z,68.60
2018-07-03T01:23:18.941Z,69.20
2018-07-03T01:25:47.139Z,68.80
2018-07-03T01:28:15.378Z,68.00
2018-07-03T01:30:43.597Z,68.00
2018-07-03T01:33:11.830Z,67.30
2018-07-03T01:35:40.025Z,67.90
2018-07-03T01:38:08.229Z,67.20
2018-07-03T01:40:36.432Z,68.10
2018-07-03T01:43:04.601Z,67.80
2018-07-03T01:45:32.817Z,67.20
2018-07-03T01:48:01.016Z,68.70
2018-07-03T01:50:29.219Z,66.80
2018-07-03T01:52:57.486Z,66.50
2018-07-03T01:55:25.731Z,67.30
2018-07-03T01:57:53.962Z,67.50
2018-07-03T02:00:22.194Z,68.80
2018-07-03T02:02:50.397Z,69.50
2018-07-03T02:05:18.605Z,69.30
2018-07-03T02:07:46.893Z,69.70
2018-07-03T02:10:15.115Z,69.00
2018-07-03T02:12:43.347Z,68.20
2018-07-03T02:15:11.545Z,68.10
2018-07-03T02:17:39.809Z,68.60
2018-07-03T02:20:08.058Z,69.00
2018-07-03T02:22:36.362Z,68.50
2018-07-03T02:25:04.689Z,68.40
2018-07-03T02:27:32.924Z,68.90
2018-07-03T02:30:01.172Z,70.20
2018-07-03T02:32:29.412Z,70.20
2018-07-03T02:34:57.664Z,70.10
2018-07-03T02:37:25.937Z,70.20
2018-07-03T02:39:54.190Z,69.30
2018-07-03T02:42:22.466Z,69.10
2018-07-03T02:44:50.720Z,69.80
2018-07-03T02:47:18.984Z,70.80
2018-07-03T02:49:47.198Z,71.00
2018-07-03T02:52:15.465Z,69.90
2018-07-03T02:54:43.748Z,70.00
2018-07-03T02:57:12.069Z,70.50
2018-07-03T02:59:40.275Z,70.80
2018-07-03T03:02:08.489Z,70.00
2018-07-03T03:04:36.750Z,69.50
2018-07-03T03:07:05.001Z,70.40
2018-07-03T03:09:33.265Z,71.70
2018-07-03T03:12:01.482Z,71.90
2018-07-03T03:14:29.762Z,72.00
2018-07-03T03:16:57.990Z,71.80
2018-07-03T03:19:26.235Z,72.40
2018-07-03T03:21:54.626Z,72.80
2018-07-03T03:24:22.880Z,72.60
2018-07-03T03:26:51.086Z,72.70
2018-07-03T03:29:19.399Z,72.50
2018-07-03T03:31:47.648Z,73.30
2018-07-03T03:34:15.960Z,73.70
2018-07-03T03:36:44.193Z,73.00
2018-07-03T03:39:13.618Z,72.00
2018-07-03T03:41:41.845Z,71.70
2018-07-03T03:44:10.131Z,73.30
2018-07-03T03:46:38.407Z,74.10
2018-07-03T03:49:06.689Z,73.60
2018-07-03T03:51:34.988Z,73.90
2018-07-03T03:54:04.125Z,74.50
2018-07-03T03:56:32.431Z,73.60
2018-07-03T03:59:00.735Z,73.80
2018-07-03T04:01:28.990Z,73.70
2018-07-03T04:03:57.258Z,74.10
2018-07-03T04:06:25.524Z,74.30
2018-07-03T04:08:53.810Z,74.60
2018-07-03T04:11:22.516Z,75.00
2018-07-03T04:13:50.781Z,75.60
2018-07-03T04:16:19.043Z,75.10
2018-07-03T04:18:47.351Z,76.00
2018-07-03T04:21:15.628Z,75.20
2018-07-03T04:23:43.875Z,75.10
2018-07-03T04:26:12.110Z,75.40
2018-07-03T04:28:40.438Z,75.20
2018-07-03T04:31:08.694Z,75.50
2018-07-03T04:33:36.953Z,75.60
2018-07-03T04:36:05.179Z,75.70
2018-07-03T04:38:33.465Z,75.40
2018-07-03T04:41:01.740Z,75.40
2018-07-03T04:43:30.000Z,73.90
2018-07-03T04:45:58.240Z,74.30
2018-07-03T04:48:26.484Z,73.50
2018-07-03T04:50:54.714Z,74.30
2018-07-03T04:53:22.984Z,74.30
2018-07-03T04:55:51.243Z,74.60
2018-07-03T04:58:19.483Z,73.90
2018-07-03T05:00:47.759Z,74.50
2018-07-03T05:03:15.990Z,75.50
2018-07-03T05:05:44.253Z,73.80
2018-07-03T05:08:12.488Z,75.50
2018-07-03T05:10:40.710Z,74.70
2018-07-03T05:13:09.011Z,75.70
2018-07-03T05:15:37.278Z,75.80
2018-07-03T05:18:05.570Z,76.10
2018-07-03T05:20:34.714Z,76.10
2018-07-03T05:23:02.992Z,75.40
2018-07-03T05:25:31.328Z,75.20
2018-07-03T05:27:59.516Z,75.20
2018-07-03T05:30:27.914Z,76.00
2018-07-03T05:32:56.121Z,75.70
2018-07-03T05:35:24.401Z,76.40
2018-07-03T05:37:52.652Z,75.40
2018-07-03T05:40:20.880Z,75.20
2018-07-03T05:42:49.109Z,75.00
2018-07-03T05:45:17.371Z,75.40
2018-07-03T05:47:45.725Z,75.00
2018-07-03T05:50:13.979Z,74.50
2018-07-03T05:52:42.202Z,73.00
2018-07-03T05:55:10.457Z,73.40
2018-07-03T05:57:38.723Z,73.50
2018-07-03T06:00:07.298Z,73.20
2018-07-03T06:02:35.563Z,73.70
2018-07-03T06:05:03.826Z,74.50
2018-07-03T06:07:32.134Z,72.80
2018-07-03T06:10:00.451Z,73.00
2018-07-03T06:12:28.696Z,73.50
2018-07-03T06:14:57.096Z,73.70
2018-07-03T06:17:25.330Z,73.00
2018-07-03T06:19:53.590Z,72.90
2018-07-03T06:22:28.183Z,73.80
2018-07-03T06:24:56.407Z,73.70
2018-07-03T06:27:24.641Z,74.60
2018-07-03T06:29:52.884Z,73.80
2018-07-03T06:32:21.173Z,73.10
2018-07-03T06:34:49.445Z,73.30
2018-07-03T06:37:17.757Z,73.20
2018-07-03T06:39:45.966Z,72.90
2018-07-03T06:42:14.219Z,73.10
2018-07-03T06:44:42.476Z,72.80
2018-07-03T06:47:10.677Z,73.50
2018-07-03T06:49:38.892Z,72.30
2018-07-03T06:52:07.152Z,72.80
2018-07-03T06:54:35.359Z,74.10
2018-07-03T06:57:03.623Z,72.70
2018-07-03T06:59:31.824Z,73.00
2018-07-03T07:02:00.063Z,73.40
2018-07-03T07:07:18.965Z,72.80
2018-07-03T07:09:47.198Z,72.80
2018-07-03T07:12:15.418Z,72.90
2018-07-03T07:14:43.973Z,72.30
2018-07-03T07:17:12.337Z,71.40
2018-07-03T07:19:40.680Z,72.10
2018-07-03T07:22:08.902Z,72.10
2018-07-03T07:24:37.160Z,71.30
2018-07-03T07:27:05.585Z,70.60
2018-07-03T07:29:33.830Z,73.00
2018-07-03T07:32:02.074Z,71.90
2018-07-03T07:34:30.321Z,71.00
2018-07-03T07:41:54.560Z,73.10
2018-07-03T07:44:22.787Z,72.50
2018-07-03T07:46:51.026Z,72.40
2018-07-03T07:51:47.306Z,72.10
2018-07-03T07:54:15.566Z,72.30
2018-07-03T07:56:43.838Z,72.10
2018-07-03T07:59:12.095Z,71.50
2018-07-03T08:01:40.421Z,70.60
2018-07-03T08:04:08.667Z,70.30
2018-07-03T08:06:37.000Z,70.90
2018-07-03T08:09:08.017Z,70.70
2018-07-03T08:11:36.271Z,73.60
2018-07-03T08:14:04.632Z,72.90
2018-07-03T08:16:32.907Z,71.30
2018-07-03T08:19:01.318Z,70.00
2018-07-03T08:21:29.504Z,71.40
2018-07-03T08:23:57.756Z,69.00
2018-07-03T08:26:25.974Z,70.30
2018-07-03T08:28:54.248Z,69.90
2018-07-03T08:31:22.508Z,69.80
2018-07-03T08:33:50.782Z,69.50
2018-07-03T08:36:19.070Z,68.40
2018-07-03T08:38:47.275Z,68.80
2018-07-03T08:41:15.500Z,68.70
2018-07-03T08:43:43.817Z,69.50
2018-07-03T08:46:12.074Z,69.30
2018-07-03T08:48:40.324Z,68.90
2018-07-03T08:51:08.577Z,68.40
2018-07-03T08:53:36.827Z,68.30
2018-07-03T08:56:05.097Z,69.30
2018-07-03T08:58:33.336Z,68.70
2018-07-03T09:01:01.598Z,68.80
2018-07-03T09:03:29.826Z,69.60
2018-07-03T09:05:58.059Z,68.80
2018-07-03T09:08:26.297Z,68.30
2018-07-03T09:10:54.528Z,67.00
2018-07-03T09:13:22.767Z,67.40
2018-07-03T09:15:51.009Z,68.00
2018-07-03T09:18:19.231Z,67.10
2018-07-03T09:20:47.542Z,66.90
2018-07-03T09:23:15.793Z,67.30
2018-07-03T09:25:44.031Z,68.00
2018-07-03T09:28:12.285Z,67.10
2018-07-03T09:30:40.651Z,68.10
2018-07-03T09:33:08.792Z,67.90
2018-07-03T09:35:37.046Z,68.10
2018-07-03T09:38:05.303Z,68.20
2018-07-03T09:40:33.567Z,67.10
2018-07-03T09:43:01.790Z,67.80
2018-07-03T09:45:33.714Z,67.40
2018-07-03T09:48:02.539Z,66.80
2018-07-03T09:50:31.222Z,67.00
2018-07-03T09:53:00.048Z,68.40
2018-07-03T09:55:28.892Z,67.90
2018-07-03T09:57:57.670Z,66.80
2018-07-03T10:00:31.771Z,67.70
2018-07-03T10:03:01.523Z,66.60
2018-07-03T10:05:31.409Z,66.60
2018-07-03T10:08:01.705Z,66.40
2018-07-03T10:10:30.591Z,67.20
2018-07-03T10:12:59.832Z,65.70
2018-07-03T10:32:49.841Z,64.60
2018-07-03T10:35:20.538Z,66.60
2018-07-03T10:37:49.326Z,64.00
2018-07-03T10:40:18.264Z,66.10
2018-07-03T10:42:47.574Z,64.00
2018-07-03T10:45:16.849Z,64.50
2018-07-03T10:47:45.634Z,64.60
2018-07-03T10:50:14.599Z,64.90
2018-07-03T11:10:03.124Z,65.10
2018-07-03T11:12:32.158Z,64.40
2018-07-03T11:15:00.893Z,62.80
2018-07-03T11:17:29.684Z,64.70
2018-07-03T11:19:58.724Z,63.10
2018-07-03T11:22:27.910Z,62.10
2018-07-03T11:24:56.918Z,62.60
2018-07-03T11:27:26.287Z,62.70
2018-07-03T11:29:55.373Z,62.50
2018-07-03T11:32:24.378Z,63.30
2018-07-03T11:34:53.657Z,64.60
2018-07-03T11:37:22.475Z,63.50
2018-07-03T11:39:51.727Z,64.10
2018-07-03T11:42:20.532Z,65.30
2018-07-03T11:44:49.553Z,64.70
2018-07-03T11:47:20.977Z,63.90
2018-07-03T11:49:49.809Z,64.80
2018-07-03T11:52:18.708Z,65.20
2018-07-03T11:54:48.523Z,65.00
2018-07-03T11:57:17.282Z,63.90
2018-07-03T11:59:46.295Z,64.70
2018-07-03T12:02:15.321Z,65.10
2018-07-03T12:04:44.376Z,65.30
2018-07-03T12:07:14.178Z,65.40
2018-07-03T12:09:44.147Z,65.10
2018-07-03T12:12:13.542Z,65.90
2018-07-03T12:14:43.335Z,65.50
2018-07-03T12:17:12.244Z,66.30
2018-07-03T12:19:41.058Z,66.70
2018-07-03T12:22:09.880Z,65.80
2018-07-03T12:24:38.679Z,66.40
2018-07-03T12:27:08.005Z,66.20
2018-07-03T12:29:37.089Z,66.20
2018-07-03T12:32:06.668Z,67.60
2018-07-03T12:37:03.806Z,67.00
2018-07-03T12:39:32.636Z,66.10
2018-07-03T12:42:01.456Z,66.80
2018-07-03T12:44:30.295Z,66.30
2018-07-03T12:46:59.169Z,66.60
2018-07-03T12:49:28.866Z,68.20
2018-07-03T13:09:17.680Z,69.20
2018-07-03T13:11:46.526Z,71.00
2018-07-03T13:14:15.425Z,69.40
2018-07-03T13:16:44.701Z,68.80
2018-07-03T13:19:13.898Z,67.80
2018-07-03T13:21:43.812Z,67.30
2018-07-03T13:41:33.548Z,67.10
2018-07-03T13:44:03.548Z,68.40
2018-07-03T13:46:32.377Z,68.20
2018-07-03T13:49:01.377Z,67.80
2018-07-03T13:51:30.315Z,65.60
2018-07-03T13:53:59.210Z,66.50
2018-07-03T13:56:28.015Z,66.30
2018-07-03T13:58:56.755Z,65.50
2018-07-03T14:01:25.628Z,67.10
2018-07-03T14:03:54.669Z,65.10
2018-07-03T14:06:23.595Z,66.10
2018-07-03T14:08:53.868Z,65.70
2018-07-03T14:11:22.623Z,65.10
2018-07-03T14:13:51.466Z,67.30
2018-07-03T14:16:20.458Z,66.50
2018-07-03T14:18:50.132Z,66.60
2018-07-03T14:38:37.559Z,64.90
2018-07-03T14:41:06.308Z,63.60
2018-07-03T14:43:36.096Z,63.20
2018-07-03T14:46:05.055Z,63.90
2018-07-03T14:48:35.056Z,63.40
2018-07-03T14:51:04.669Z,63.80
2018-07-03T14:53:33.525Z,62.70
2018-07-03T14:56:02.312Z,62.40
2018-07-03T14:58:31.539Z,62.10
2018-07-03T15:01:00.432Z,62.70
2018-07-03T15:03:29.398Z,62.20
2018-07-03T15:05:59.193Z,62.20
2018-07-03T15:08:28.114Z,63.70
2018-07-03T15:10:57.031Z,63.50
2018-07-03T15:13:25.970Z,64.20
2018-07-03T15:15:54.962Z,63.00
2018-07-03T15:18:25.770Z,60.80
2018-07-03T15:20:54.582Z,63.50
2018-07-03T15:23:24.200Z,61.80
2018-07-03T15:25:53.131Z,64.60
2018-07-03T15:28:22.756Z,65.00
2018-07-03T15:30:52.278Z,65.00
2018-07-03T15:33:21.206Z,63.20
2018-07-03T15:53:08.352Z,59.80
2018-07-03T15:55:37.200Z,59.40
2018-07-03T15:58:06.647Z,57.20
2018-07-03T16:00:35.425Z,58.70
2018-07-03T16:03:15.439Z,59.30
2018-07-03T16:05:59.168Z,58.90
2018-07-03T16:09:36.213Z,57.90
2018-07-03T16:12:05.255Z,58.60
2018-07-03T16:14:35.135Z,57.90
2018-07-03T16:17:04.889Z,57.20
2018-07-03T16:19:38.951Z,58.80
2018-07-03T16:22:07.212Z,60.70
2018-07-03T16:24:35.392Z,59.90
2018-07-03T16:27:03.583Z,59.00
2018-07-03T16:29:31.822Z,58.40
2018-07-03T16:31:59.997Z,58.60
2018-07-03T16:34:28.197Z,58.50
2018-07-03T16:36:56.375Z,57.10
2018-07-03T16:39:24.589Z,56.80
2018-07-03T16:41:52.728Z,57.20
2018-07-03T16:44:20.897Z,58.60
2018-07-03T16:46:49.060Z,58.10
2018-07-03T16:49:17.305Z,58.00
2018-07-03T16:51:45.495Z,57.70
2018-07-03T16:54:13.707Z,57.60
2018-07-03T16:56:41.903Z,59.00
2018-07-03T16:59:10.083Z,59.40
2018-07-03T17:01:38.262Z,58.00
2018-07-03T17:04:06.436Z,57.30
2018-07-03T17:06:34.659Z,58.80
2018-07-03T17:09:03.079Z,58.10
2018-07-03T17:11:31.362Z,59.00
2018-07-03T17:13:59.916Z,59.10
2018-07-03T17:16:28.293Z,57.70
2018-07-03T17:19:01.895Z,59.00
2018-07-03T17:21:30.213Z,56.90
2018-07-03T17:23:58.425Z,55.90
2018-07-03T17:26:26.637Z,55.30
2018-07-03T17:28:54.837Z,55.90
2018-07-03T17:31:23.241Z,56.30
2018-07-03T17:33:51.523Z,56.20
2018-07-03T17:36:19.726Z,56.10
2018-07-03T17:38:47.985Z,56.00
2018-07-03T17:41:27.698Z,56.80
2018-07-03T17:46:29.440Z,56.10
2018-07-03T17:48:57.651Z,56.80
2018-07-03T17:53:53.843Z,56.80
2018-07-03T17:56:22.174Z,56.30
2018-07-03T17:58:50.534Z,56.80
2018-07-03T18:01:18.789Z,57.00
2018-07-03T18:03:47.012Z,55.70
2018-07-03T18:06:15.268Z,56.80
2018-07-03T18:08:43.501Z,56.90
2018-07-03T18:13:39.734Z,55.80
2018-07-03T18:16:08.142Z,56.70
2018-07-03T18:18:36.360Z,57.30
2018-07-03T18:21:04.578Z,56.70
2018-07-03T18:23:32.780Z,57.00
2018-07-03T18:26:00.993Z,56.50
2018-07-03T18:28:29.161Z,57.20
2018-07-03T18:30:57.386Z,59.30
2018-07-03T18:33:25.623Z,62.30
2018-07-03T18:35:53.854Z,63.60
2018-07-03T18:38:22.054Z,63.60
2018-07-03T18:40:50.267Z,63.90
2018-07-03T18:43:18.536Z,64.30
2018-07-03T18:45:46.767Z,64.50
2018-07-03T18:48:14.986Z,65.50
2018-07-03T18:50:43.208Z,66.20
2018-07-03T18:53:11.440Z,66.40
2018-07-03T18:55:39.650Z,66.70
2018-07-03T18:58:07.849Z,67.10
2018-07-03T19:00:36.060Z,67.60
2018-07-03T19:05:32.250Z,68.70
2018-07-03T19:08:00.495Z,69.50
2018-07-03T19:10:28.727Z,69.30
2018-07-03T19:12:56.963Z,69.80
2018-07-03T19:17:53.142Z,71.30
2018-07-03T19:20:21.425Z,71.40
2018-07-03T19:22:49.630Z,71.40
2018-07-03T19:25:17.847Z,71.80
2018-07-03T19:27:46.056Z,72.30
2018-07-03T19:30:14.259Z,72.80
2018-07-03T19:32:42.512Z,73.20
2018-07-03T19:35:10.724Z,73.30
2018-07-03T19:37:38.962Z,73.20
2018-07-03T19:40:07.452Z,73.50
2018-07-03T19:42:41.715Z,74.80
2018-07-03T19:45:09.943Z,75.50
2018-07-03T19:50:06.140Z,75.40
2018-07-03T19:52:34.440Z,75.50
2018-07-03T19:55:02.677Z,75.60
2018-07-03T19:57:30.890Z,76.30
2018-07-03T20:00:00.024Z,76.50
2018-07-03T20:02:28.236Z,77.50
2018-07-03T20:04:56.462Z,77.30
2018-07-03T20:07:24.730Z,77.80
2018-07-03T20:09:52.901Z,78.20
2018-07-03T20:12:21.138Z,77.70
2018-07-03T20:17:17.354Z,77.80
2018-07-03T20:19:45.579Z,77.60
2018-07-03T20:22:13.815Z,77.90
2018-07-03T20:24:42.071Z,78.00
2018-07-03T20:27:10.291Z,78.20
2018-07-03T20:29:38.522Z,78.60
2018-07-03T20:32:06.799Z,78.40
2018-07-03T20:34:35.010Z,78.90
2018-07-03T20:37:03.252Z,78.90
2018-07-03T20:39:31.481Z,80.30
2018-07-03T20:41:59.684Z,80.20
2018-07-03T20:46:55.863Z,80.20
2018-07-03T20:49:24.106Z,80.30
2018-07-03T20:51:52.355Z,81.30
2018-07-03T20:54:20.568Z,80.80
2018-07-03T20:56:48.808Z,81.00
2018-07-03T20:59:17.013Z,81.90
2018-07-03T21:01:45.230Z,82.40
2018-07-03T21:04:13.562Z,83.40
2018-07-03T21:06:41.654Z,83.80
2018-07-03T21:09:10.780Z,84.80
2018-07-03T21:11:39.071Z,85.50
2018-07-03T21:14:07.242Z,86.10
2018-07-03T21:19:03.436Z,86.80
2018-07-03T21:21:31.614Z,86.60
2018-07-03T21:23:59.890Z,86.80
2018-07-03T21:26:28.057Z,87.20
2018-07-03T21:28:56.256Z,87.50
2018-07-03T21:31:24.417Z,87.70
2018-07-03T21:33:52.618Z,88.10
2018-07-03T21:36:20.822Z,88.40
2018-07-03T21:38:49.084Z,88.50
2018-07-03T21:41:17.223Z,89.10
2018-07-03T21:43:45.432Z,89.40
2018-07-03T21:46:13.653Z,89.00
2018-07-03T21:48:41.841Z,89.50
2018-07-03T21:51:10.025Z,89.50
2018-07-03T21:53:38.247Z,89.40
2018-07-03T21:56:06.432Z,89.00
2018-07-03T21:58:34.657Z,88.80
2018-07-03T22:03:30.825Z,89.30
2018-07-03T22:05:59.019Z,89.20
2018-07-03T22:08:27.257Z,90.00
2018-07-03T22:10:55.409Z,90.80
2018-07-03T22:13:23.601Z,91.10
2018-07-03T22:15:51.810Z,91.30
2018-07-03T22:18:20.013Z,91.50
2018-07-03T22:20:48.212Z,91.90
2018-07-03T22:23:16.430Z,92.20
2018-07-03T22:25:44.615Z,92.00
2018-07-03T22:30:40.764Z,91.50
2018-07-03T22:33:08.945Z,90.90
2018-07-03T22:35:37.162Z,91.00
2018-07-03T22:38:05.371Z,90.70
2018-07-03T22:40:33.568Z,90.60
2018-07-03T22:43:01.734Z,90.60
2018-07-03T22:45:29.941Z,90.70
2018-07-03T22:47:58.122Z,91.10
2018-07-03T22:50:26.352Z,91.20
2018-07-03T22:52:54.586Z,91.90
2018-07-03T22:55:22.753Z,92.20
2018-07-03T22:57:50.940Z,92.10
2018-07-03T23:00:19.133Z,91.80
2018-07-03T23:05:15.335Z,91.40
2018-07-03T23:07:43.589Z,91.40
2018-07-03T23:10:11.810Z,91.40
2018-07-03T23:12:40.008Z,91.10
2018-07-03T23:15:08.184Z,91.00
2018-07-03T23:17:36.348Z,91.40
2018-07-03T23:20:04.552Z,91.10
2018-07-03T23:22:32.762Z,91.20
2018-07-03T23:25:00.966Z,91.10
2018-07-03T23:27:29.122Z,91.10
2018-07-03T23:29:57.343Z,91.20
2018-07-03T23:32:25.542Z,91.60
2018-07-03T23:34:53.740Z,91.50
2018-07-03T23:37:21.934Z,91.60
2018-07-03T23:39:50.133Z,91.60
2018-07-03T23:42:18.327Z,91.70
2018-07-03T23:47:25.761Z,91.80
2018-07-03T23:50:05.352Z,92.00
2018-07-03T23:52:44.839Z,92.30
2018-07-03T23:55:24.351Z,92.50
